KMSO/MSO METAR and TAF weather

Enter ICAO airport designator
Station Type Date Time Source
KMSO METAR 2021/09/16 09:53 UTC NOAA

KMSO 160953Z AUTO 00000KT 10SM BKN080 10/02 A2987 RMK AO2 SLP102 T01000017


Station Type Date Time Source
KMSO Decoded METAR 2021/09/16 09:53 UTC NOAA

MISSOULA INTERNATIONAL AIRPORT , MT, United States (KMSO) 46-55N 114-06W 975M
Sep 16, 2021 - 05:53 AM EDT / 2021.09.16 0953 UTC
Wind: Calm:0
Visibility: 10 mile(s):0
Sky conditions: mostly cloudy
Temperature: 50.0 F (10.0 C)
Dew Point: 35.1 F (1.7 C)
Relative Humidity: 56%
Pressure (altimeter): 29.87 in. Hg (1011 hPa)
ob: KMSO 160953Z AUTO 00000KT 10SM BKN080 10/02 A2987 RMK AO2 SLP102 T01000017
cycle: 10

Station Type Date Time Source
KMSO TAF 2021/09/16 06:22 UTC NOAA

TAF KMSO 160520Z 1606/1706 30008KT P6SM BKN200
FM161000 30004KT P6SM BKN250
FM162000 31011KT P6SM SKC

Example: see airport list